sensor_id;sensor_type;location;lat;lon;timestamp;P1;durP1;ratioP1;P2;durP2;ratioP2
80836;SDS011;70251;60.008;30.404;2023-09-19T00:02:17;4.27;;;1.40;;
80836;SDS011;70251;60.008;30.404;2023-09-19T00:04:43;4.57;;;1.50;;
80836;SDS011;70251;60.008;30.404;2023-09-19T00:07:09;5.13;;;1.55;;
80836;SDS011;70251;60.008;30.404;2023-09-19T00:09:35;3.93;;;1.27;;
80836;SDS011;70251;60.008;30.404;2023-09-19T00:12:06;4.57;;;1.27;;
80836;SDS011;70251;60.008;30.404;2023-09-19T00:14:34;4.57;;;1.30;;
80836;SDS011;70251;60.008;30.404;2023-09-19T00:17:01;5.13;;;1.40;;
80836;SDS011;70251;60.008;30.404;2023-09-19T00:19:33;5.30;;;1.38;;
80836;SDS011;70251;60.008;30.404;2023-09-19T00:22:00;4.87;;;1.57;;
80836;SDS011;70251;60.008;30.404;2023-09-19T00:24:26;5.78;;;1.48;;
80836;SDS011;70251;60.008;30.404;2023-09-19T00:26:53;4.63;;;1.50;;
80836;SDS011;70251;60.008;30.404;2023-09-19T00:29:21;5.63;;;1.52;;
80836;SDS011;70251;60.008;30.404;2023-09-19T00:31:48;4.65;;;1.50;;
80836;SDS011;70251;60.008;30.404;2023-09-19T00:34:15;5.30;;;1.30;;
80836;SDS011;70251;60.008;30.404;2023-09-19T00:36:42;6.90;;;1.50;;
80836;SDS011;70251;60.008;30.404;2023-09-19T00:39:08;4.28;;;1.25;;
80836;SDS011;70251;60.008;30.404;2023-09-19T00:41:35;4.65;;;1.35;;
80836;SDS011;70251;60.008;30.404;2023-09-19T00:44:02;6.53;;;1.40;;
80836;SDS011;70251;60.008;30.404;2023-09-19T00:46:29;4.50;;;1.20;;
80836;SDS011;70251;60.008;30.404;2023-09-19T00:48:57;4.90;;;1.38;;
80836;SDS011;70251;60.008;30.404;2023-09-19T00:51:24;5.35;;;1.00;;
80836;SDS011;70251;60.008;30.404;2023-09-19T00:53:51;4.80;;;1.40;;
80836;SDS011;70251;60.008;30.404;2023-09-19T00:56:18;5.60;;;1.23;;
80836;SDS011;70251;60.008;30.404;2023-09-19T00:58:44;4.80;;;1.30;;
80836;SDS011;70251;60.008;30.404;2023-09-19T01:01:12;4.55;;;1.17;;
80836;SDS011;70251;60.008;30.404;2023-09-19T01:03:40;5.40;;;1.10;;
80836;SDS011;70251;60.008;30.404;2023-09-19T01:06:09;5.70;;;1.15;;
80836;SDS011;70251;60.008;30.404;2023-09-19T01:08:35;4.63;;;1.07;;
80836;SDS011;70251;60.008;30.404;2023-09-19T01:13:34;2.58;;;0.80;;
80836;SDS011;70251;60.008;30.404;2023-09-19T01:16:35;2.92;;;0.70;;
80836;SDS011;70251;60.008;30.404;2023-09-19T01:29:46;3.50;;;0.75;;
80836;SDS011;70251;60.008;30.404;2023-09-19T01:32:19;2.80;;;0.70;;
80836;SDS011;70251;60.008;30.404;2023-09-19T01:34:51;3.42;;;0.80;;
80836;SDS011;70251;60.008;30.404;2023-09-19T01:37:19;3.63;;;0.90;;
80836;SDS011;70251;60.008;30.404;2023-09-19T01:39:52;3.13;;;0.70;;
80836;SDS011;70251;60.008;30.404;2023-09-19T01:47:54;3.70;;;0.60;;
80836;SDS011;70251;60.008;30.404;2023-09-19T01:52:48;3.23;;;0.70;;
80836;SDS011;70251;60.008;30.404;2023-09-19T01:55:20;6.80;;;0.70;;
80836;SDS011;70251;60.008;30.404;2023-09-19T01:57:49;3.10;;;0.60;;
80836;SDS011;70251;60.008;30.404;2023-09-19T02:00:23;3.47;;;0.55;;
80836;SDS011;70251;60.008;30.404;2023-09-19T02:02:51;3.53;;;0.70;;
80836;SDS011;70251;60.008;30.404;2023-09-19T02:05:24;2.70;;;0.43;;
80836;SDS011;70251;60.008;30.404;2023-09-19T02:07:52;2.38;;;0.50;;
80836;SDS011;70251;60.008;30.404;2023-09-19T02:10:21;2.65;;;0.60;;
80836;SDS011;70251;60.008;30.404;2023-09-19T02:12:48;3.28;;;0.85;;
80836;SDS011;70251;60.008;30.404;2023-09-19T02:15:15;3.57;;;0.60;;
80836;SDS011;70251;60.008;30.404;2023-09-19T02:17:42;4.00;;;0.70;;
80836;SDS011;70251;60.008;30.404;2023-09-19T02:20:10;2.95;;;0.60;;
80836;SDS011;70251;60.008;30.404;2023-09-19T02:22:41;3.83;;;0.90;;
80836;SDS011;70251;60.008;30.404;2023-09-19T02:25:27;2.95;;;0.50;;
80836;SDS011;70251;60.008;30.404;2023-09-19T02:27:52;4.43;;;0.73;;
80836;SDS011;70251;60.008;30.404;2023-09-19T02:30:19;3.10;;;0.70;;
80836;SDS011;70251;60.008;30.404;2023-09-19T02:32:51;4.03;;;0.60;;
80836;SDS011;70251;60.008;30.404;2023-09-19T02:35:17;2.57;;;0.57;;
80836;SDS011;70251;60.008;30.404;2023-09-19T02:37:45;4.57;;;0.75;;
80836;SDS011;70251;60.008;30.404;2023-09-19T02:40:12;2.65;;;0.40;;
80836;SDS011;70251;60.008;30.404;2023-09-19T02:42:46;3.67;;;0.80;;
80836;SDS011;70251;60.008;30.404;2023-09-19T02:45:16;4.60;;;0.68;;
80836;SDS011;70251;60.008;30.404;2023-09-19T02:47:46;2.40;;;0.40;;
80836;SDS011;70251;60.008;30.404;2023-09-19T02:50:13;4.82;;;0.70;;
80836;SDS011;70251;60.008;30.404;2023-09-19T02:52:41;3.40;;;0.60;;
80836;SDS011;70251;60.008;30.404;2023-09-19T02:55:11;1.90;;;0.38;;
80836;SDS011;70251;60.008;30.404;2023-09-19T02:57:40;3.00;;;0.60;;
80836;SDS011;70251;60.008;30.404;2023-09-19T03:00:09;2.67;;;0.50;;
80836;SDS011;70251;60.008;30.404;2023-09-19T03:02:38;2.63;;;0.40;;
80836;SDS011;70251;60.008;30.404;2023-09-19T03:05:05;2.55;;;0.40;;
80836;SDS011;70251;60.008;30.404;2023-09-19T03:07:31;1.90;;;0.20;;
80836;SDS011;70251;60.008;30.404;2023-09-19T03:09:57;2.90;;;0.33;;
80836;SDS011;70251;60.008;30.404;2023-09-19T03:12:22;3.30;;;1.00;;
80836;SDS011;70251;60.008;30.404;2023-09-19T03:14:48;2.58;;;0.43;;
80836;SDS011;70251;60.008;30.404;2023-09-19T03:17:15;2.08;;;0.50;;
80836;SDS011;70251;60.008;30.404;2023-09-19T03:19:41;2.87;;;0.40;;
80836;SDS011;70251;60.008;30.404;2023-09-19T03:22:07;2.78;;;0.60;;
80836;SDS011;70251;60.008;30.404;2023-09-19T03:24:33;3.27;;;0.60;;
80836;SDS011;70251;60.008;30.404;2023-09-19T03:27:00;2.20;;;0.40;;
80836;SDS011;70251;60.008;30.404;2023-09-19T03:29:26;4.33;;;0.50;;
80836;SDS011;70251;60.008;30.404;2023-09-19T03:31:52;2.80;;;0.40;;
80836;SDS011;70251;60.008;30.404;2023-09-19T03:34:19;1.80;;;0.30;;
80836;SDS011;70251;60.008;30.404;2023-09-19T03:36:46;2.60;;;0.43;;
80836;SDS011;70251;60.008;30.404;2023-09-19T03:39:12;2.75;;;0.40;;
80836;SDS011;70251;60.008;30.404;2023-09-19T03:41:37;2.23;;;0.33;;
80836;SDS011;70251;60.008;30.404;2023-09-19T03:44:04;2.13;;;0.45;;
80836;SDS011;70251;60.008;30.404;2023-09-19T03:46:29;1.92;;;0.30;;
80836;SDS011;70251;60.008;30.404;2023-09-19T03:48:57;1.63;;;0.30;;
80836;SDS011;70251;60.008;30.404;2023-09-19T03:51:22;2.20;;;0.32;;
80836;SDS011;70251;60.008;30.404;2023-09-19T03:53:48;2.13;;;0.40;;
80836;SDS011;70251;60.008;30.404;2023-09-19T03:56:16;2.08;;;0.30;;
80836;SDS011;70251;60.008;30.404;2023-09-19T03:58:42;5.60;;;0.50;;
80836;SDS011;70251;60.008;30.404;2023-09-19T04:01:07;1.57;;;0.20;;
80836;SDS011;70251;60.008;30.404;2023-09-19T04:03:33;1.83;;;0.20;;
80836;SDS011;70251;60.008;30.404;2023-09-19T04:06:10;2.63;;;0.20;;
80836;SDS011;70251;60.008;30.404;2023-09-19T04:08:37;2.22;;;0.30;;
80836;SDS011;70251;60.008;30.404;2023-09-19T04:11:02;1.52;;;0.25;;
80836;SDS011;70251;60.008;30.404;2023-09-19T04:13:28;1.10;;;0.20;;
80836;SDS011;70251;60.008;30.404;2023-09-19T04:15:55;1.77;;;0.40;;
80836;SDS011;70251;60.008;30.404;2023-09-19T04:18:21;2.38;;;0.30;;
80836;SDS011;70251;60.008;30.404;2023-09-19T04:20:49;1.45;;;0.20;;
80836;SDS011;70251;60.008;30.404;2023-09-19T04:23:15;1.27;;;0.17;;
80836;SDS011;70251;60.008;30.404;2023-09-19T04:25:41;1.65;;;0.30;;
80836;SDS011;70251;60.008;30.404;2023-09-19T04:28:06;1.75;;;0.40;;
80836;SDS011;70251;60.008;30.404;2023-09-19T04:30:32;1.83;;;0.30;;
80836;SDS011;70251;60.008;30.404;2023-09-19T04:32:58;2.23;;;0.30;;
80836;SDS011;70251;60.008;30.404;2023-09-19T04:35:24;3.42;;;0.32;;
80836;SDS011;70251;60.008;30.404;2023-09-19T04:37:51;2.88;;;0.50;;
80836;SDS011;70251;60.008;30.404;2023-09-19T04:40:18;2.10;;;0.30;;
80836;SDS011;70251;60.008;30.404;2023-09-19T04:42:45;2.05;;;0.35;;
80836;SDS011;70251;60.008;30.404;2023-09-19T04:45:11;4.20;;;0.50;;
80836;SDS011;70251;60.008;30.404;2023-09-19T04:47:37;4.82;;;0.40;;
80836;SDS011;70251;60.008;30.404;2023-09-19T04:50:07;5.40;;;1.30;;
80836;SDS011;70251;60.008;30.404;2023-09-19T04:52:41;4.72;;;0.30;;
80836;SDS011;70251;60.008;30.404;2023-09-19T04:55:10;4.20;;;0.45;;
80836;SDS011;70251;60.008;30.404;2023-09-19T04:57:42;5.53;;;0.70;;
80836;SDS011;70251;60.008;30.404;2023-09-19T05:00:12;4.82;;;0.80;;
80836;SDS011;70251;60.008;30.404;2023-09-19T05:02:40;3.65;;;0.65;;
80836;SDS011;70251;60.008;30.404;2023-09-19T05:05:07;5.85;;;1.00;;
80836;SDS011;70251;60.008;30.404;2023-09-19T05:07:34;2.60;;;0.50;;
80836;SDS011;70251;60.008;30.404;2023-09-19T05:10:00;5.30;;;0.60;;
80836;SDS011;70251;60.008;30.404;2023-09-19T05:12:26;2.75;;;0.50;;
80836;SDS011;70251;60.008;30.404;2023-09-19T05:14:52;4.40;;;0.50;;
80836;SDS011;70251;60.008;30.404;2023-09-19T05:17:18;2.80;;;0.43;;
80836;SDS011;70251;60.008;30.404;2023-09-19T05:19:44;8.88;;;0.75;;
80836;SDS011;70251;60.008;30.404;2023-09-19T05:22:11;4.05;;;0.60;;
80836;SDS011;70251;60.008;30.404;2023-09-19T05:24:37;4.50;;;0.50;;
80836;SDS011;70251;60.008;30.404;2023-09-19T05:27:04;3.28;;;0.50;;
80836;SDS011;70251;60.008;30.404;2023-09-19T05:29:32;2.87;;;0.40;;
80836;SDS011;70251;60.008;30.404;2023-09-19T05:31:58;4.82;;;0.40;;
80836;SDS011;70251;60.008;30.404;2023-09-19T05:34:24;5.10;;;0.75;;
80836;SDS011;70251;60.008;30.404;2023-09-19T05:36:53;2.67;;;0.40;;
80836;SDS011;70251;60.008;30.404;2023-09-19T05:39:19;7.15;;;0.60;;
80836;SDS011;70251;60.008;30.404;2023-09-19T05:41:45;2.53;;;0.37;;
80836;SDS011;70251;60.008;30.404;2023-09-19T05:44:12;3.88;;;0.40;;
80836;SDS011;70251;60.008;30.404;2023-09-19T05:46:39;4.10;;;0.50;;
80836;SDS011;70251;60.008;30.404;2023-09-19T05:49:05;1.97;;;0.30;;
80836;SDS011;70251;60.008;30.404;2023-09-19T05:51:30;2.83;;;0.40;;
80836;SDS011;70251;60.008;30.404;2023-09-19T05:53:56;5.47;;;0.40;;
80836;SDS011;70251;60.008;30.404;2023-09-19T05:56:22;1.92;;;0.30;;
80836;SDS011;70251;60.008;30.404;2023-09-19T05:58:48;4.03;;;0.60;;
80836;SDS011;70251;60.008;30.404;2023-09-19T06:01:15;2.08;;;0.40;;
80836;SDS011;70251;60.008;30.404;2023-09-19T06:03:41;2.40;;;0.30;;
80836;SDS011;70251;60.008;30.404;2023-09-19T06:06:06;5.35;;;0.70;;
80836;SDS011;70251;60.008;30.404;2023-09-19T06:08:33;3.00;;;0.50;;
80836;SDS011;70251;60.008;30.404;2023-09-19T06:10:59;2.30;;;0.30;;
80836;SDS011;70251;60.008;30.404;2023-09-19T06:13:24;3.60;;;0.50;;
80836;SDS011;70251;60.008;30.404;2023-09-19T06:15:52;2.37;;;0.53;;
80836;SDS011;70251;60.008;30.404;2023-09-19T06:18:18;2.05;;;0.40;;
80836;SDS011;70251;60.008;30.404;2023-09-19T06:20:46;2.80;;;0.40;;
80836;SDS011;70251;60.008;30.404;2023-09-19T06:23:12;2.75;;;0.35;;
80836;SDS011;70251;60.008;30.404;2023-09-19T06:25:38;2.15;;;0.30;;
80836;SDS011;70251;60.008;30.404;2023-09-19T06:28:04;2.87;;;0.40;;
80836;SDS011;70251;60.008;30.404;2023-09-19T06:30:30;1.98;;;0.30;;
80836;SDS011;70251;60.008;30.404;2023-09-19T06:32:57;3.85;;;0.50;;
80836;SDS011;70251;60.008;30.404;2023-09-19T06:35:23;3.80;;;0.50;;
80836;SDS011;70251;60.008;30.404;2023-09-19T06:37:51;2.65;;;0.40;;
80836;SDS011;70251;60.008;30.404;2023-09-19T06:40:18;4.07;;;0.37;;
80836;SDS011;70251;60.008;30.404;2023-09-19T06:42:45;3.28;;;0.45;;
80836;SDS011;70251;60.008;30.404;2023-09-19T06:45:13;3.97;;;0.60;;
80836;SDS011;70251;60.008;30.404;2023-09-19T06:47:43;2.28;;;0.50;;
80836;SDS011;70251;60.008;30.404;2023-09-19T06:50:17;3.00;;;0.40;;
80836;SDS011;70251;60.008;30.404;2023-09-19T06:52:45;4.37;;;0.50;;
80836;SDS011;70251;60.008;30.404;2023-09-19T06:55:14;2.78;;;0.60;;
80836;SDS011;70251;60.008;30.404;2023-09-19T06:57:41;3.50;;;0.60;;
80836;SDS011;70251;60.008;30.404;2023-09-19T07:00:09;2.55;;;0.50;;
80836;SDS011;70251;60.008;30.404;2023-09-19T07:02:43;3.15;;;0.60;;
80836;SDS011;70251;60.008;30.404;2023-09-19T07:05:10;3.20;;;0.70;;
80836;SDS011;70251;60.008;30.404;2023-09-19T07:07:36;2.95;;;0.70;;
80836;SDS011;70251;60.008;30.404;2023-09-19T07:10:02;3.35;;;0.70;;
80836;SDS011;70251;60.008;30.404;2023-09-19T07:12:31;4.43;;;0.70;;
80836;SDS011;70251;60.008;30.404;2023-09-19T07:14:58;3.80;;;0.80;;
80836;SDS011;70251;60.008;30.404;2023-09-19T07:17:24;4.45;;;0.90;;
80836;SDS011;70251;60.008;30.404;2023-09-19T07:19:49;3.70;;;0.97;;
80836;SDS011;70251;60.008;30.404;2023-09-19T07:22:16;5.32;;;0.95;;
80836;SDS011;70251;60.008;30.404;2023-09-19T07:24:41;6.57;;;1.03;;
80836;SDS011;70251;60.008;30.404;2023-09-19T07:27:08;4.45;;;0.90;;
80836;SDS011;70251;60.008;30.404;2023-09-19T07:29:34;3.95;;;1.02;;
80836;SDS011;70251;60.008;30.404;2023-09-19T07:31:59;5.27;;;0.93;;
80836;SDS011;70251;60.008;30.404;2023-09-19T07:34:25;3.72;;;0.82;;
80836;SDS011;70251;60.008;30.404;2023-09-19T07:36:51;4.82;;;1.13;;
80836;SDS011;70251;60.008;30.404;2023-09-19T07:39:17;4.33;;;0.73;;
80836;SDS011;70251;60.008;30.404;2023-09-19T07:41:42;4.10;;;1.20;;
80836;SDS011;70251;60.008;30.404;2023-09-19T07:44:08;4.43;;;1.40;;
80836;SDS011;70251;60.008;30.404;2023-09-19T07:46:35;4.60;;;1.35;;
80836;SDS011;70251;60.008;30.404;2023-09-19T07:49:01;4.93;;;1.00;;
80836;SDS011;70251;60.008;30.404;2023-09-19T07:51:26;4.63;;;1.10;;
80836;SDS011;70251;60.008;30.404;2023-09-19T07:53:52;5.47;;;1.37;;
80836;SDS011;70251;60.008;30.404;2023-09-19T07:56:20;6.35;;;0.98;;
80836;SDS011;70251;60.008;30.404;2023-09-19T07:58:46;4.30;;;0.95;;
80836;SDS011;70251;60.008;30.404;2023-09-19T08:01:12;3.63;;;1.00;;
80836;SDS011;70251;60.008;30.404;2023-09-19T08:03:39;5.27;;;1.47;;
80836;SDS011;70251;60.008;30.404;2023-09-19T08:06:11;5.43;;;1.63;;
80836;SDS011;70251;60.008;30.404;2023-09-19T08:08:37;6.80;;;1.33;;
80836;SDS011;70251;60.008;30.404;2023-09-19T08:11:04;4.83;;;1.13;;
80836;SDS011;70251;60.008;30.404;2023-09-19T08:13:37;7.00;;;1.80;;
80836;SDS011;70251;60.008;30.404;2023-09-19T08:16:12;6.25;;;1.48;;
80836;SDS011;70251;60.008;30.404;2023-09-19T08:18:40;6.85;;;1.65;;
80836;SDS011;70251;60.008;30.404;2023-09-19T08:21:06;5.70;;;1.60;;
80836;SDS011;70251;60.008;30.404;2023-09-19T08:23:35;5.97;;;1.83;;
80836;SDS011;70251;60.008;30.404;2023-09-19T08:26:04;5.68;;;1.58;;
80836;SDS011;70251;60.008;30.404;2023-09-19T08:28:35;5.45;;;1.80;;
80836;SDS011;70251;60.008;30.404;2023-09-19T08:31:03;9.70;;;1.98;;
80836;SDS011;70251;60.008;30.404;2023-09-19T08:33:32;4.80;;;1.45;;
80836;SDS011;70251;60.008;30.404;2023-09-19T08:35:59;6.50;;;1.60;;
80836;SDS011;70251;60.008;30.404;2023-09-19T08:38:25;7.00;;;2.05;;
80836;SDS011;70251;60.008;30.404;2023-09-19T08:40:58;9.30;;;2.13;;
80836;SDS011;70251;60.008;30.404;2023-09-19T08:43:27;7.78;;;2.85;;
80836;SDS011;70251;60.008;30.404;2023-09-19T08:46:12;6.63;;;2.20;;
80836;SDS011;70251;60.008;30.404;2023-09-19T08:48:45;6.83;;;2.10;;
80836;SDS011;70251;60.008;30.404;2023-09-19T08:51:21;6.57;;;1.92;;
80836;SDS011;70251;60.008;30.404;2023-09-19T08:56:35;9.88;;;2.40;;
80836;SDS011;70251;60.008;30.404;2023-09-19T08:59:05;7.80;;;2.13;;
80836;SDS011;70251;60.008;30.404;2023-09-19T09:01:35;6.90;;;2.00;;
80836;SDS011;70251;60.008;30.404;2023-09-19T09:04:01;6.82;;;1.98;;
80836;SDS011;70251;60.008;30.404;2023-09-19T09:06:27;6.85;;;2.45;;
80836;SDS011;70251;60.008;30.404;2023-09-19T09:08:54;6.88;;;2.20;;
80836;SDS011;70251;60.008;30.404;2023-09-19T09:11:22;5.47;;;2.00;;
80836;SDS011;70251;60.008;30.404;2023-09-19T09:13:50;9.18;;;2.25;;
80836;SDS011;70251;60.008;30.404;2023-09-19T09:16:16;7.38;;;2.38;;
80836;SDS011;70251;60.008;30.404;2023-09-19T09:18:45;7.28;;;2.08;;
80836;SDS011;70251;60.008;30.404;2023-09-19T09:21:18;9.83;;;2.80;;
80836;SDS011;70251;60.008;30.404;2023-09-19T09:23:45;6.60;;;1.92;;
80836;SDS011;70251;60.008;30.404;2023-09-19T09:26:10;11.75;;;3.22;;
80836;SDS011;70251;60.008;30.404;2023-09-19T09:28:38;7.00;;;2.60;;
80836;SDS011;70251;60.008;30.404;2023-09-19T09:31:23;7.00;;;2.60;;
80836;SDS011;70251;60.008;30.404;2023-09-19T09:33:55;6.90;;;2.22;;
80836;SDS011;70251;60.008;30.404;2023-09-19T09:36:38;6.60;;;2.78;;
80836;SDS011;70251;60.008;30.404;2023-09-19T09:39:06;7.17;;;2.20;;
80836;SDS011;70251;60.008;30.404;2023-09-19T09:41:50;6.03;;;2.47;;
80836;SDS011;70251;60.008;30.404;2023-09-19T09:44:17;9.95;;;2.92;;
80836;SDS011;70251;60.008;30.404;2023-09-19T09:46:45;7.07;;;2.92;;
80836;SDS011;70251;60.008;30.404;2023-09-19T09:49:15;6.73;;;2.30;;
80836;SDS011;70251;60.008;30.404;2023-09-19T09:54:34;6.88;;;2.50;;
80836;SDS011;70251;60.008;30.404;2023-09-19T09:57:10;6.78;;;2.10;;
80836;SDS011;70251;60.008;30.404;2023-09-19T09:59:47;11.00;;;3.58;;
80836;SDS011;70251;60.008;30.404;2023-09-19T10:02:16;7.67;;;3.00;;
80836;SDS011;70251;60.008;30.404;2023-09-19T10:04:51;9.30;;;3.13;;
80836;SDS011;70251;60.008;30.404;2023-09-19T10:07:27;9.13;;;3.13;;
80836;SDS011;70251;60.008;30.404;2023-09-19T10:09:58;7.15;;;2.75;;
80836;SDS011;70251;60.008;30.404;2023-09-19T10:12:31;8.30;;;2.72;;
80836;SDS011;70251;60.008;30.404;2023-09-19T10:15:00;9.87;;;3.40;;
80836;SDS011;70251;60.008;30.404;2023-09-19T10:17:29;9.35;;;3.63;;
80836;SDS011;70251;60.008;30.404;2023-09-19T10:20:00;9.43;;;3.13;;
80836;SDS011;70251;60.008;30.404;2023-09-19T10:22:34;8.38;;;3.55;;
80836;SDS011;70251;60.008;30.404;2023-09-19T10:25:02;7.45;;;3.10;;
80836;SDS011;70251;60.008;30.404;2023-09-19T10:27:33;10.80;;;3.93;;
80836;SDS011;70251;60.008;30.404;2023-09-19T10:30:04;6.90;;;2.78;;
80836;SDS011;70251;60.008;30.404;2023-09-19T10:32:34;8.95;;;3.28;;
80836;SDS011;70251;60.008;30.404;2023-09-19T10:35:02;6.97;;;3.10;;
80836;SDS011;70251;60.008;30.404;2023-09-19T10:37:30;8.52;;;3.40;;
80836;SDS011;70251;60.008;30.404;2023-09-19T10:39:57;9.67;;;2.77;;
80836;SDS011;70251;60.008;30.404;2023-09-19T10:42:23;9.00;;;3.97;;
80836;SDS011;70251;60.008;30.404;2023-09-19T10:44:54;6.80;;;3.38;;
80836;SDS011;70251;60.008;30.404;2023-09-19T10:47:25;8.18;;;3.05;;
80836;SDS011;70251;60.008;30.404;2023-09-19T10:49:51;7.00;;;3.10;;
80836;SDS011;70251;60.008;30.404;2023-09-19T10:52:19;9.33;;;3.37;;
80836;SDS011;70251;60.008;30.404;2023-09-19T10:54:50;7.10;;;3.22;;
80836;SDS011;70251;60.008;30.404;2023-09-19T10:57:23;6.35;;;3.38;;
80836;SDS011;70251;60.008;30.404;2023-09-19T11:00:02;10.73;;;3.60;;
80836;SDS011;70251;60.008;30.404;2023-09-19T11:05:34;10.55;;;4.47;;
80836;SDS011;70251;60.008;30.404;2023-09-19T11:08:06;8.02;;;3.42;;
80836;SDS011;70251;60.008;30.404;2023-09-19T11:10:44;8.18;;;3.00;;
80836;SDS011;70251;60.008;30.404;2023-09-19T11:13:24;9.48;;;3.83;;
80836;SDS011;70251;60.008;30.404;2023-09-19T11:26:41;8.70;;;3.58;;
80836;SDS011;70251;60.008;30.404;2023-09-19T11:29:28;9.20;;;3.70;;
80836;SDS011;70251;60.008;30.404;2023-09-19T11:31:55;7.97;;;4.10;;
80836;SDS011;70251;60.008;30.404;2023-09-19T11:39:37;10.70;;;4.40;;
80836;SDS011;70251;60.008;30.404;2023-09-19T11:45:27;8.52;;;4.28;;
80836;SDS011;70251;60.008;30.404;2023-09-19T11:48:15;11.32;;;3.83;;
80836;SDS011;70251;60.008;30.404;2023-09-19T11:50:44;7.70;;;4.40;;
80836;SDS011;70251;60.008;30.404;2023-09-19T11:53:16;10.55;;;4.20;;
80836;SDS011;70251;60.008;30.404;2023-09-19T11:55:43;8.73;;;3.80;;
80836;SDS011;70251;60.008;30.404;2023-09-19T11:58:10;7.60;;;4.13;;
80836;SDS011;70251;60.008;30.404;2023-09-19T12:00:39;6.70;;;3.17;;
80836;SDS011;70251;60.008;30.404;2023-09-19T12:03:09;7.28;;;3.00;;
80836;SDS011;70251;60.008;30.404;2023-09-19T12:05:36;8.65;;;3.88;;
80836;SDS011;70251;60.008;30.404;2023-09-19T12:08:09;8.77;;;3.97;;
80836;SDS011;70251;60.008;30.404;2023-09-19T12:10:50;7.57;;;3.60;;
80836;SDS011;70251;60.008;30.404;2023-09-19T12:13:18;7.93;;;4.18;;
80836;SDS011;70251;60.008;30.404;2023-09-19T12:15:46;7.97;;;3.60;;
80836;SDS011;70251;60.008;30.404;2023-09-19T12:18:29;7.22;;;3.97;;
80836;SDS011;70251;60.008;30.404;2023-09-19T12:21:01;8.80;;;3.83;;
80836;SDS011;70251;60.008;30.404;2023-09-19T12:23:30;10.13;;;3.90;;
80836;SDS011;70251;60.008;30.404;2023-09-19T12:25:55;9.15;;;3.75;;
80836;SDS011;70251;60.008;30.404;2023-09-19T12:28:23;7.13;;;3.47;;
80836;SDS011;70251;60.008;30.404;2023-09-19T12:30:52;8.10;;;3.72;;
80836;SDS011;70251;60.008;30.404;2023-09-19T12:33:21;7.72;;;3.67;;
80836;SDS011;70251;60.008;30.404;2023-09-19T12:35:50;9.32;;;3.20;;
80836;SDS011;70251;60.008;30.404;2023-09-19T12:38:28;7.90;;;3.50;;
80836;SDS011;70251;60.008;30.404;2023-09-19T12:40:55;6.93;;;3.00;;
80836;SDS011;70251;60.008;30.404;2023-09-19T12:43:24;11.95;;;4.10;;
80836;SDS011;70251;60.008;30.404;2023-09-19T12:45:50;11.23;;;3.65;;
80836;SDS011;70251;60.008;30.404;2023-09-19T12:48:22;8.50;;;4.25;;
80836;SDS011;70251;60.008;30.404;2023-09-19T12:51:00;10.48;;;3.63;;
80836;SDS011;70251;60.008;30.404;2023-09-19T12:53:33;8.30;;;3.10;;
80836;SDS011;70251;60.008;30.404;2023-09-19T12:56:06;7.57;;;3.30;;
80836;SDS011;70251;60.008;30.404;2023-09-19T12:58:32;6.60;;;2.97;;
80836;SDS011;70251;60.008;30.404;2023-09-19T13:00:59;6.28;;;2.75;;
80836;SDS011;70251;60.008;30.404;2023-09-19T13:03:28;8.47;;;3.47;;
80836;SDS011;70251;60.008;30.404;2023-09-19T13:05:55;7.17;;;3.23;;
80836;SDS011;70251;60.008;30.404;2023-09-19T13:08:30;5.95;;;2.38;;
80836;SDS011;70251;60.008;30.404;2023-09-19T13:13:39;5.78;;;2.35;;
80836;SDS011;70251;60.008;30.404;2023-09-19T13:16:05;9.68;;;3.65;;
80836;SDS011;70251;60.008;30.404;2023-09-19T13:18:44;7.07;;;3.43;;
80836;SDS011;70251;60.008;30.404;2023-09-19T13:21:14;10.52;;;3.53;;
80836;SDS011;70251;60.008;30.404;2023-09-19T13:23:53;5.60;;;3.05;;
80836;SDS011;70251;60.008;30.404;2023-09-19T13:26:28;6.78;;;3.28;;
80836;SDS011;70251;60.008;30.404;2023-09-19T13:28:56;11.40;;;3.83;;
80836;SDS011;70251;60.008;30.404;2023-09-19T13:31:22;7.20;;;2.90;;
80836;SDS011;70251;60.008;30.404;2023-09-19T13:33:50;6.00;;;2.85;;
80836;SDS011;70251;60.008;30.404;2023-09-19T13:36:17;7.75;;;2.75;;
80836;SDS011;70251;60.008;30.404;2023-09-19T13:38:44;10.00;;;3.97;;
80836;SDS011;70251;60.008;30.404;2023-09-19T13:41:10;7.67;;;2.97;;
80836;SDS011;70251;60.008;30.404;2023-09-19T13:43:36;7.30;;;3.38;;
80836;SDS011;70251;60.008;30.404;2023-09-19T13:46:02;8.00;;;3.30;;
80836;SDS011;70251;60.008;30.404;2023-09-19T13:48:29;10.13;;;3.25;;
80836;SDS011;70251;60.008;30.404;2023-09-19T13:50:55;7.30;;;3.50;;
80836;SDS011;70251;60.008;30.404;2023-09-19T13:53:22;8.77;;;3.78;;
80836;SDS011;70251;60.008;30.404;2023-09-19T13:55:48;8.73;;;4.45;;
80836;SDS011;70251;60.008;30.404;2023-09-19T13:58:14;9.63;;;3.13;;
80836;SDS011;70251;60.008;30.404;2023-09-19T14:00:40;8.57;;;3.75;;
80836;SDS011;70251;60.008;30.404;2023-09-19T14:03:05;8.10;;;3.50;;
80836;SDS011;70251;60.008;30.404;2023-09-19T14:05:38;8.32;;;3.38;;
80836;SDS011;70251;60.008;30.404;2023-09-19T14:08:03;9.23;;;3.42;;
80836;SDS011;70251;60.008;30.404;2023-09-19T14:10:29;9.38;;;3.83;;
80836;SDS011;70251;60.008;30.404;2023-09-19T14:12:57;12.63;;;3.50;;
80836;SDS011;70251;60.008;30.404;2023-09-19T14:15:26;5.85;;;2.85;;
80836;SDS011;70251;60.008;30.404;2023-09-19T14:17:58;7.97;;;3.25;;
80836;SDS011;70251;60.008;30.404;2023-09-19T14:20:30;6.85;;;2.97;;
80836;SDS011;70251;60.008;30.404;2023-09-19T14:22:59;7.53;;;3.63;;
80836;SDS011;70251;60.008;30.404;2023-09-19T14:25:29;7.23;;;3.10;;
80836;SDS011;70251;60.008;30.404;2023-09-19T14:27:57;7.50;;;3.25;;
80836;SDS011;70251;60.008;30.404;2023-09-19T14:30:23;7.45;;;2.90;;
80836;SDS011;70251;60.008;30.404;2023-09-19T14:32:49;8.60;;;3.13;;
80836;SDS011;70251;60.008;30.404;2023-09-19T14:35:14;7.38;;;3.03;;
80836;SDS011;70251;60.008;30.404;2023-09-19T14:37:41;8.93;;;3.45;;
80836;SDS011;70251;60.008;30.404;2023-09-19T14:40:06;10.37;;;3.50;;
80836;SDS011;70251;60.008;30.404;2023-09-19T14:42:35;9.25;;;3.65;;
80836;SDS011;70251;60.008;30.404;2023-09-19T14:45:06;7.78;;;3.30;;
80836;SDS011;70251;60.008;30.404;2023-09-19T14:47:32;6.73;;;3.20;;
80836;SDS011;70251;60.008;30.404;2023-09-19T14:50:03;9.23;;;3.53;;
80836;SDS011;70251;60.008;30.404;2023-09-19T14:52:32;7.15;;;3.30;;
80836;SDS011;70251;60.008;30.404;2023-09-19T14:55:07;8.00;;;3.45;;
80836;SDS011;70251;60.008;30.404;2023-09-19T14:57:36;11.50;;;3.75;;
80836;SDS011;70251;60.008;30.404;2023-09-19T15:00:05;8.13;;;3.30;;
80836;SDS011;70251;60.008;30.404;2023-09-19T15:02:38;7.75;;;3.53;;
80836;SDS011;70251;60.008;30.404;2023-09-19T15:05:05;12.18;;;4.35;;
80836;SDS011;70251;60.008;30.404;2023-09-19T15:07:34;10.20;;;4.32;;
80836;SDS011;70251;60.008;30.404;2023-09-19T15:10:04;7.38;;;3.47;;
80836;SDS011;70251;60.008;30.404;2023-09-19T15:12:32;8.27;;;3.60;;
80836;SDS011;70251;60.008;30.404;2023-09-19T15:14:58;8.82;;;3.20;;
80836;SDS011;70251;60.008;30.404;2023-09-19T15:17:24;7.93;;;3.60;;
80836;SDS011;70251;60.008;30.404;2023-09-19T15:19:50;8.43;;;3.60;;
80836;SDS011;70251;60.008;30.404;2023-09-19T15:22:16;9.00;;;3.90;;
80836;SDS011;70251;60.008;30.404;2023-09-19T15:24:42;7.30;;;3.23;;
80836;SDS011;70251;60.008;30.404;2023-09-19T15:27:07;7.18;;;3.65;;
80836;SDS011;70251;60.008;30.404;2023-09-19T15:29:33;8.97;;;3.97;;
80836;SDS011;70251;60.008;30.404;2023-09-19T15:31:58;11.25;;;4.35;;
80836;SDS011;70251;60.008;30.404;2023-09-19T15:34:27;7.63;;;3.73;;